sensor_id;sensor_type;location;lat;lon;timestamp;temperature;humidity
37794;DHT22;23632;48.826;15.176;2022-08-24T00:01:52;19.00;89.70
37794;DHT22;23632;48.826;15.176;2022-08-24T00:04:19;18.90;89.80
37794;DHT22;23632;48.826;15.176;2022-08-24T00:06:47;18.90;89.90
37794;DHT22;23632;48.826;15.176;2022-08-24T00:09:15;18.90;90.00
37794;DHT22;23632;48.826;15.176;2022-08-24T00:11:42;19.00;89.90
37794;DHT22;23632;48.826;15.176;2022-08-24T00:14:09;18.90;89.90
37794;DHT22;23632;48.826;15.176;2022-08-24T00:16:37;18.90;89.80
37794;DHT22;23632;48.826;15.176;2022-08-24T00:19:05;18.90;89.90
37794;DHT22;23632;48.826;15.176;2022-08-24T00:21:32;18.90;89.90
37794;DHT22;23632;48.826;15.176;2022-08-24T00:23:59;18.90;90.00
37794;DHT22;23632;48.826;15.176;2022-08-24T00:26:28;18.90;90.00
37794;DHT22;23632;48.826;15.176;2022-08-24T00:28:57;18.90;90.00
37794;DHT22;23632;48.826;15.176;2022-08-24T00:31:24;18.90;90.00
37794;DHT22;23632;48.826;15.176;2022-08-24T00:33:53;18.90;90.00
37794;DHT22;23632;48.826;15.176;2022-08-24T00:36:21;19.00;90.00
37794;DHT22;23632;48.826;15.176;2022-08-24T00:38:49;19.00;90.00
37794;DHT22;23632;48.826;15.176;2022-08-24T00:41:17;19.00;90.00
37794;DHT22;23632;48.826;15.176;2022-08-24T00:44:00;19.00;90.00
37794;DHT22;23632;48.826;15.176;2022-08-24T00:49:32;19.00;89.90
37794;DHT22;23632;48.826;15.176;2022-08-24T00:52:08;19.00;89.80
37794;DHT22;23632;48.826;15.176;2022-08-24T00:54:43;19.00;89.80
37794;DHT22;23632;48.826;15.176;2022-08-24T00:57:16;19.00;89.80
37794;DHT22;23632;48.826;15.176;2022-08-24T00:59:53;19.00;89.80
37794;DHT22;23632;48.826;15.176;2022-08-24T01:02:27;19.00;89.80
37794;DHT22;23632;48.826;15.176;2022-08-24T01:05:05;19.00;89.90
37794;DHT22;23632;48.826;15.176;2022-08-24T01:07:35;19.00;89.80
37794;DHT22;23632;48.826;15.176;2022-08-24T01:10:06;19.00;90.00
37794;DHT22;23632;48.826;15.176;2022-08-24T01:12:40;19.00;89.90
37794;DHT22;23632;48.826;15.176;2022-08-24T01:15:32;19.00;90.00
37794;DHT22;23632;48.826;15.176;2022-08-24T01:18:02;19.00;89.90
37794;DHT22;23632;48.826;15.176;2022-08-24T01:23:55;19.10;89.90
37794;DHT22;23632;48.826;15.176;2022-08-24T01:26:34;19.00;89.70
37794;DHT22;23632;48.826;15.176;2022-08-24T01:29:10;19.00;89.50
37794;DHT22;23632;48.826;15.176;2022-08-24T01:31:41;19.00;89.40
37794;DHT22;23632;48.826;15.176;2022-08-24T01:34:09;19.00;89.50
37794;DHT22;23632;48.826;15.176;2022-08-24T01:36:42;19.00;89.60
37794;DHT22;23632;48.826;15.176;2022-08-24T01:39:18;19.00;89.50
37794;DHT22;23632;48.826;15.176;2022-08-24T01:41:48;19.00;89.70
37794;DHT22;23632;48.826;15.176;2022-08-24T01:44:18;19.00;89.80
37794;DHT22;23632;48.826;15.176;2022-08-24T01:46:49;19.00;89.90
37794;DHT22;23632;48.826;15.176;2022-08-24T01:49:21;19.00;89.90
37794;DHT22;23632;48.826;15.176;2022-08-24T01:51:52;19.00;89.90
37794;DHT22;23632;48.826;15.176;2022-08-24T01:54:20;19.00;90.00
37794;DHT22;23632;48.826;15.176;2022-08-24T01:56:47;19.00;90.00
37794;DHT22;23632;48.826;15.176;2022-08-24T01:59:16;19.00;89.90
37794;DHT22;23632;48.826;15.176;2022-08-24T02:01:52;19.00;89.80
37794;DHT22;23632;48.826;15.176;2022-08-24T02:04:49;19.00;89.60
37794;DHT22;23632;48.826;15.176;2022-08-24T02:07:17;19.00;89.60
37794;DHT22;23632;48.826;15.176;2022-08-24T02:09:45;19.00;89.60
37794;DHT22;23632;48.826;15.176;2022-08-24T02:12:14;19.00;89.70
37794;DHT22;23632;48.826;15.176;2022-08-24T02:14:42;19.00;89.80
37794;DHT22;23632;48.826;15.176;2022-08-24T02:17:10;19.00;89.80
37794;DHT22;23632;48.826;15.176;2022-08-24T02:19:37;19.00;89.80
37794;DHT22;23632;48.826;15.176;2022-08-24T02:22:05;19.00;89.70
37794;DHT22;23632;48.826;15.176;2022-08-24T02:24:35;19.00;89.60
37794;DHT22;23632;48.826;15.176;2022-08-24T02:27:03;19.00;89.50
37794;DHT22;23632;48.826;15.176;2022-08-24T02:29:32;19.00;89.50
37794;DHT22;23632;48.826;15.176;2022-08-24T02:31:59;19.10;89.70
37794;DHT22;23632;48.826;15.176;2022-08-24T02:34:26;19.00;89.60
37794;DHT22;23632;48.826;15.176;2022-08-24T02:36:53;19.10;89.50
37794;DHT22;23632;48.826;15.176;2022-08-24T02:39:20;19.10;89.40
37794;DHT22;23632;48.826;15.176;2022-08-24T02:41:50;19.00;89.30
37794;DHT22;23632;48.826;15.176;2022-08-24T02:44:18;19.00;89.30
37794;DHT22;23632;48.826;15.176;2022-08-24T02:46:47;19.00;89.30
37794;DHT22;23632;48.826;15.176;2022-08-24T02:49:15;19.00;89.50
37794;DHT22;23632;48.826;15.176;2022-08-24T02:51:45;19.00;89.40
37794;DHT22;23632;48.826;15.176;2022-08-24T02:54:17;19.00;90.00
37794;DHT22;23632;48.826;15.176;2022-08-24T02:56:48;19.00;89.30
37794;DHT22;23632;48.826;15.176;2022-08-24T02:59:16;19.00;89.40
37794;DHT22;23632;48.826;15.176;2022-08-24T03:01:44;19.00;89.40
37794;DHT22;23632;48.826;15.176;2022-08-24T03:04:16;19.00;89.40
37794;DHT22;23632;48.826;15.176;2022-08-24T03:06:43;19.00;89.50
37794;DHT22;23632;48.826;15.176;2022-08-24T03:09:11;19.00;89.60
37794;DHT22;23632;48.826;15.176;2022-08-24T03:11:39;19.00;89.80
37794;DHT22;23632;48.826;15.176;2022-08-24T03:14:11;19.10;90.00
37794;DHT22;23632;48.826;15.176;2022-08-24T03:16:40;19.00;90.00
37794;DHT22;23632;48.826;15.176;2022-08-24T03:19:07;19.00;90.00
37794;DHT22;23632;48.826;15.176;2022-08-24T03:21:36;19.00;90.00
37794;DHT22;23632;48.826;15.176;2022-08-24T03:24:04;19.10;90.00
37794;DHT22;23632;48.826;15.176;2022-08-24T03:26:31;19.10;90.00
37794;DHT22;23632;48.826;15.176;2022-08-24T03:28:59;19.10;90.00
37794;DHT22;23632;48.826;15.176;2022-08-24T03:31:27;19.10;90.00
37794;DHT22;23632;48.826;15.176;2022-08-24T03:33:55;19.10;90.00
37794;DHT22;23632;48.826;15.176;2022-08-24T03:36:22;19.20;90.00
37794;DHT22;23632;48.826;15.176;2022-08-24T03:38:49;19.20;90.00
37794;DHT22;23632;48.826;15.176;2022-08-24T03:41:17;19.20;90.00
37794;DHT22;23632;48.826;15.176;2022-08-24T03:43:45;19.20;89.80
37794;DHT22;23632;48.826;15.176;2022-08-24T03:46:21;19.20;89.80
37794;DHT22;23632;48.826;15.176;2022-08-24T03:48:52;19.20;89.70
37794;DHT22;23632;48.826;15.176;2022-08-24T03:51:24;19.20;89.80
37794;DHT22;23632;48.826;15.176;2022-08-24T03:53:55;19.20;89.70
37794;DHT22;23632;48.826;15.176;2022-08-24T03:56:26;19.30;89.80
37794;DHT22;23632;48.826;15.176;2022-08-24T03:58:55;19.30;89.50
37794;DHT22;23632;48.826;15.176;2022-08-24T04:01:25;19.30;89.20
37794;DHT22;23632;48.826;15.176;2022-08-24T04:03:53;19.30;89.10
37794;DHT22;23632;48.826;15.176;2022-08-24T04:06:28;19.30;88.90
37794;DHT22;23632;48.826;15.176;2022-08-24T04:08:56;19.20;89.60
37794;DHT22;23632;48.826;15.176;2022-08-24T04:11:26;19.20;88.90
37794;DHT22;23632;48.826;15.176;2022-08-24T04:13:55;19.20;88.90
37794;DHT22;23632;48.826;15.176;2022-08-24T04:16:25;19.20;89.00
37794;DHT22;23632;48.826;15.176;2022-08-24T04:19:04;19.10;89.00
37794;DHT22;23632;48.826;15.176;2022-08-24T04:21:33;19.20;89.20
37794;DHT22;23632;48.826;15.176;2022-08-24T04:24:06;19.10;89.20
37794;DHT22;23632;48.826;15.176;2022-08-24T04:26:36;19.10;89.20
37794;DHT22;23632;48.826;15.176;2022-08-24T04:29:15;19.10;89.30
37794;DHT22;23632;48.826;15.176;2022-08-24T04:31:54;19.10;89.30
37794;DHT22;23632;48.826;15.176;2022-08-24T04:34:22;19.10;89.30
37794;DHT22;23632;48.826;15.176;2022-08-24T04:36:50;19.10;89.30
37794;DHT22;23632;48.826;15.176;2022-08-24T04:39:17;19.10;89.40
37794;DHT22;23632;48.826;15.176;2022-08-24T04:41:58;19.10;89.60
37794;DHT22;23632;48.826;15.176;2022-08-24T04:44:34;19.10;89.60
37794;DHT22;23632;48.826;15.176;2022-08-24T04:47:02;19.10;89.70
37794;DHT22;23632;48.826;15.176;2022-08-24T04:49:29;19.10;89.80
37794;DHT22;23632;48.826;15.176;2022-08-24T04:51:57;19.20;89.90
37794;DHT22;23632;48.826;15.176;2022-08-24T04:54:24;19.20;89.90
37794;DHT22;23632;48.826;15.176;2022-08-24T04:57:15;19.20;89.90
37794;DHT22;23632;48.826;15.176;2022-08-24T04:59:45;19.20;89.90
37794;DHT22;23632;48.826;15.176;2022-08-24T05:02:12;19.30;90.00
37794;DHT22;23632;48.826;15.176;2022-08-24T05:04:40;19.30;90.00
37794;DHT22;23632;48.826;15.176;2022-08-24T05:07:07;19.30;90.00
37794;DHT22;23632;48.826;15.176;2022-08-24T05:09:39;19.40;90.00
37794;DHT22;23632;48.826;15.176;2022-08-24T05:12:06;19.40;90.00
37794;DHT22;23632;48.826;15.176;2022-08-24T05:14:38;19.40;90.00
37794;DHT22;23632;48.826;15.176;2022-08-24T05:17:05;19.50;90.00
37794;DHT22;23632;48.826;15.176;2022-08-24T05:19:36;19.50;90.00
37794;DHT22;23632;48.826;15.176;2022-08-24T05:22:03;19.50;90.00
37794;DHT22;23632;48.826;15.176;2022-08-24T05:24:31;19.60;90.00
37794;DHT22;23632;48.826;15.176;2022-08-24T05:26:59;19.60;89.90
37794;DHT22;23632;48.826;15.176;2022-08-24T05:29:26;19.60;89.80
37794;DHT22;23632;48.826;15.176;2022-08-24T05:31:54;19.70;89.80
37794;DHT22;23632;48.826;15.176;2022-08-24T05:34:22;19.70;89.80
37794;DHT22;23632;48.826;15.176;2022-08-24T05:36:50;19.70;89.70
37794;DHT22;23632;48.826;15.176;2022-08-24T05:39:37;19.70;89.50
37794;DHT22;23632;48.826;15.176;2022-08-24T05:42:07;19.70;89.50
37794;DHT22;23632;48.826;15.176;2022-08-24T05:44:42;19.80;89.70
37794;DHT22;23632;48.826;15.176;2022-08-24T05:47:09;19.80;89.80
37794;DHT22;23632;48.826;15.176;2022-08-24T05:49:37;19.80;89.60
37794;DHT22;23632;48.826;15.176;2022-08-24T05:52:08;19.80;89.50
37794;DHT22;23632;48.826;15.176;2022-08-24T05:54:35;19.80;89.50
37794;DHT22;23632;48.826;15.176;2022-08-24T05:57:03;19.80;89.70
37794;DHT22;23632;48.826;15.176;2022-08-24T05:59:38;19.90;89.80
37794;DHT22;23632;48.826;15.176;2022-08-24T06:02:15;19.90;89.70
37794;DHT22;23632;48.826;15.176;2022-08-24T06:04:43;20.00;89.40
37794;DHT22;23632;48.826;15.176;2022-08-24T06:07:11;20.00;89.60
37794;DHT22;23632;48.826;15.176;2022-08-24T06:09:43;20.00;89.80
37794;DHT22;23632;48.826;15.176;2022-08-24T06:12:11;20.00;90.00
37794;DHT22;23632;48.826;15.176;2022-08-24T06:14:44;20.10;90.00
37794;DHT22;23632;48.826;15.176;2022-08-24T06:17:14;20.10;89.90
37794;DHT22;23632;48.826;15.176;2022-08-24T06:19:42;20.20;90.00
37794;DHT22;23632;48.826;15.176;2022-08-24T06:22:09;20.20;90.00
37794;DHT22;23632;48.826;15.176;2022-08-24T06:24:37;20.30;90.00
37794;DHT22;23632;48.826;15.176;2022-08-24T06:27:26;20.40;90.00
37794;DHT22;23632;48.826;15.176;2022-08-24T06:30:00;20.50;90.10
37794;DHT22;23632;48.826;15.176;2022-08-24T06:32:52;20.50;89.70
37794;DHT22;23632;48.826;15.176;2022-08-24T06:35:25;20.60;90.00
37794;DHT22;23632;48.826;15.176;2022-08-24T06:37:54;20.70;90.10
37794;DHT22;23632;48.826;15.176;2022-08-24T06:40:23;20.70;90.10
37794;DHT22;23632;48.826;15.176;2022-08-24T06:42:52;20.90;90.10
37794;DHT22;23632;48.826;15.176;2022-08-24T06:45:41;20.90;90.00
37794;DHT22;23632;48.826;15.176;2022-08-24T06:48:12;21.00;90.00
37794;DHT22;23632;48.826;15.176;2022-08-24T06:50:39;21.10;90.00
37794;DHT22;23632;48.826;15.176;2022-08-24T06:53:07;21.20;89.90
37794;DHT22;23632;48.826;15.176;2022-08-24T06:55:35;21.20;89.70
37794;DHT22;23632;48.826;15.176;2022-08-24T06:58:03;21.30;89.80
37794;DHT22;23632;48.826;15.176;2022-08-24T07:00:30;21.40;89.90
37794;DHT22;23632;48.826;15.176;2022-08-24T07:02:57;21.40;89.80
37794;DHT22;23632;48.826;15.176;2022-08-24T07:05:26;21.50;89.90
37794;DHT22;23632;48.826;15.176;2022-08-24T07:08:22;21.60;89.80
37794;DHT22;23632;48.826;15.176;2022-08-24T07:10:50;21.70;89.50
37794;DHT22;23632;48.826;15.176;2022-08-24T07:13:18;21.70;89.00
37794;DHT22;23632;48.826;15.176;2022-08-24T07:15:45;21.80;89.00
37794;DHT22;23632;48.826;15.176;2022-08-24T07:18:16;21.80;88.80
37794;DHT22;23632;48.826;15.176;2022-08-24T07:20:47;21.80;88.60
37794;DHT22;23632;48.826;15.176;2022-08-24T07:23:26;21.90;88.70
37794;DHT22;23632;48.826;15.176;2022-08-24T07:26:13;21.90;88.60
37794;DHT22;23632;48.826;15.176;2022-08-24T07:28:53;21.90;88.30
37794;DHT22;23632;48.826;15.176;2022-08-24T07:31:40;21.90;88.30
37794;DHT22;23632;48.826;15.176;2022-08-24T07:34:20;22.00;89.20
37794;DHT22;23632;48.826;15.176;2022-08-24T07:36:48;22.00;88.60
37794;DHT22;23632;48.826;15.176;2022-08-24T07:39:16;22.00;88.40
37794;DHT22;23632;48.826;15.176;2022-08-24T07:41:44;22.10;88.10
37794;DHT22;23632;48.826;15.176;2022-08-24T07:44:31;22.10;88.00
37794;DHT22;23632;48.826;15.176;2022-08-24T07:47:00;22.10;87.80
37794;DHT22;23632;48.826;15.176;2022-08-24T07:49:47;22.10;87.90
37794;DHT22;23632;48.826;15.176;2022-08-24T07:52:15;22.20;88.30
37794;DHT22;23632;48.826;15.176;2022-08-24T07:54:43;22.20;88.30
37794;DHT22;23632;48.826;15.176;2022-08-24T07:57:11;22.30;89.40
37794;DHT22;23632;48.826;15.176;2022-08-24T07:59:38;22.30;88.60
37794;DHT22;23632;48.826;15.176;2022-08-24T08:02:05;22.40;88.40
37794;DHT22;23632;48.826;15.176;2022-08-24T08:04:34;22.50;88.40
37794;DHT22;23632;48.826;15.176;2022-08-24T08:07:01;22.60;88.30
37794;DHT22;23632;48.826;15.176;2022-08-24T08:09:32;22.60;88.30
37794;DHT22;23632;48.826;15.176;2022-08-24T08:12:00;22.80;88.40
37794;DHT22;23632;48.826;15.176;2022-08-24T08:14:28;22.80;88.60
37794;DHT22;23632;48.826;15.176;2022-08-24T08:16:55;22.90;88.70
37794;DHT22;23632;48.826;15.176;2022-08-24T08:19:23;23.00;88.70
37794;DHT22;23632;48.826;15.176;2022-08-24T08:21:51;23.20;89.10
37794;DHT22;23632;48.826;15.176;2022-08-24T08:25:01;23.30;88.50
37794;DHT22;23632;48.826;15.176;2022-08-24T08:27:28;23.50;88.40
37794;DHT22;23632;48.826;15.176;2022-08-24T08:29:55;23.60;88.10
37794;DHT22;23632;48.826;15.176;2022-08-24T08:32:23;23.80;88.10
37794;DHT22;23632;48.826;15.176;2022-08-24T08:34:50;23.90;88.10
37794;DHT22;23632;48.826;15.176;2022-08-24T08:37:19;24.10;88.00
37794;DHT22;23632;48.826;15.176;2022-08-24T08:39:46;24.20;87.70
37794;DHT22;23632;48.826;15.176;2022-08-24T08:42:29;24.30;86.90
37794;DHT22;23632;48.826;15.176;2022-08-24T08:45:21;24.40;86.20
37794;DHT22;23632;48.826;15.176;2022-08-24T08:51:22;24.60;85.00
37794;DHT22;23632;48.826;15.176;2022-08-24T08:54:25;24.70;85.50
37794;DHT22;23632;48.826;15.176;2022-08-24T09:09:24;24.90;84.30
37794;DHT22;23632;48.826;15.176;2022-08-24T09:12:54;25.00;84.30
37794;DHT22;23632;48.826;15.176;2022-08-24T09:28:11;24.90;81.90
37794;DHT22;23632;48.826;15.176;2022-08-24T09:37:28;24.60;82.60
37794;DHT22;23632;48.826;15.176;2022-08-24T09:40:19;24.70;84.30
37794;DHT22;23632;48.826;15.176;2022-08-24T09:43:02;24.70;85.00
37794;DHT22;23632;48.826;15.176;2022-08-24T09:58:26;25.40;84.00
37794;DHT22;23632;48.826;15.176;2022-08-24T10:04:25;25.80;84.70
37794;DHT22;23632;48.826;15.176;2022-08-24T10:07:16;25.90;83.00
37794;DHT22;23632;48.826;15.176;2022-08-24T10:09:57;26.10;82.30
37794;DHT22;23632;48.826;15.176;2022-08-24T10:15:37;26.20;83.10
37794;DHT22;23632;48.826;15.176;2022-08-24T10:27:07;26.10;81.20
37794;DHT22;23632;48.826;15.176;2022-08-24T10:45:16;25.50;81.40
37794;DHT22;23632;48.826;15.176;2022-08-24T10:53:54;25.80;82.00
37794;DHT22;23632;48.826;15.176;2022-08-24T10:56:38;25.90;81.70
37794;DHT22;23632;48.826;15.176;2022-08-24T11:02:08;26.20;79.70
37794;DHT22;23632;48.826;15.176;2022-08-24T11:04:58;26.20;81.10
37794;DHT22;23632;48.826;15.176;2022-08-24T11:07:32;26.30;80.50
37794;DHT22;23632;48.826;15.176;2022-08-24T11:10:09;26.30;81.40
37794;DHT22;23632;48.826;15.176;2022-08-24T11:12:39;26.50;81.00
37794;DHT22;23632;48.826;15.176;2022-08-24T11:18:03;26.60;81.00
37794;DHT22;23632;48.826;15.176;2022-08-24T11:23:22;26.90;81.40
37794;DHT22;23632;48.826;15.176;2022-08-24T11:26:04;27.10;80.90
37794;DHT22;23632;48.826;15.176;2022-08-24T11:28:37;27.20;80.80
37794;DHT22;23632;48.826;15.176;2022-08-24T11:31:34;27.30;78.60
37794;DHT22;23632;48.826;15.176;2022-08-24T11:34:15;27.40;78.40
37794;DHT22;23632;48.826;15.176;2022-08-24T11:36:44;27.40;78.20
37794;DHT22;23632;48.826;15.176;2022-08-24T11:39:25;27.50;78.40
37794;DHT22;23632;48.826;15.176;2022-08-24T11:42:15;27.50;78.20
37794;DHT22;23632;48.826;15.176;2022-08-24T11:57:10;27.90;78.10
37794;DHT22;23632;48.826;15.176;2022-08-24T12:00:04;28.10;77.90
37794;DHT22;23632;48.826;15.176;2022-08-24T12:05:47;28.50;76.10
37794;DHT22;23632;48.826;15.176;2022-08-24T12:17:36;28.90;73.40
37794;DHT22;23632;48.826;15.176;2022-08-24T12:23:02;28.90;73.60
37794;DHT22;23632;48.826;15.176;2022-08-24T12:25:34;29.00;73.00
37794;DHT22;23632;48.826;15.176;2022-08-24T12:28:28;29.00;73.90
37794;DHT22;23632;48.826;15.176;2022-08-24T12:31:51;29.20;73.50
37794;DHT22;23632;48.826;15.176;2022-08-24T12:34:39;29.30;74.20
37794;DHT22;23632;48.826;15.176;2022-08-24T12:38:08;29.30;72.70
37794;DHT22;23632;48.826;15.176;2022-08-24T12:40:59;29.40;73.80
37794;DHT22;23632;48.826;15.176;2022-08-24T12:43:50;29.60;73.40
37794;DHT22;23632;48.826;15.176;2022-08-24T12:46:24;29.90;74.20
37794;DHT22;23632;48.826;15.176;2022-08-24T12:49:00;30.20;72.60
37794;DHT22;23632;48.826;15.176;2022-08-24T12:55:22;30.50;72.40
37794;DHT22;23632;48.826;15.176;2022-08-24T13:01:22;30.30;71.30
37794;DHT22;23632;48.826;15.176;2022-08-24T13:09:47;29.70;70.30
37794;DHT22;23632;48.826;15.176;2022-08-24T13:28:53;30.80;72.00
37794;DHT22;23632;48.826;15.176;2022-08-24T13:33:59;32.40;71.80
37794;DHT22;23632;48.826;15.176;2022-08-24T13:46:08;35.90;68.00
37794;DHT22;23632;48.826;15.176;2022-08-24T13:48:55;36.70;67.10
37794;DHT22;23632;48.826;15.176;2022-08-24T13:51:47;37.20;63.60
37794;DHT22;23632;48.826;15.176;2022-08-24T13:55:01;37.60;63.90
37794;DHT22;23632;48.826;15.176;2022-08-24T13:58:02;37.80;61.00
37794;DHT22;23632;48.826;15.176;2022-08-24T14:06:39;38.50;58.90
37794;DHT22;23632;48.826;15.176;2022-08-24T14:09:28;38.50;56.10
37794;DHT22;23632;48.826;15.176;2022-08-24T14:12:43;38.30;57.00
37794;DHT22;23632;48.826;15.176;2022-08-24T14:15:44;37.80;56.00
37794;DHT22;23632;48.826;15.176;2022-08-24T14:18:59;37.20;55.70
37794;DHT22;23632;48.826;15.176;2022-08-24T14:21:47;36.30;56.10
37794;DHT22;23632;48.826;15.176;2022-08-24T14:24:45;35.60;56.00
37794;DHT22;23632;48.826;15.176;2022-08-24T14:27:38;34.80;56.00
37794;DHT22;23632;48.826;15.176;2022-08-24T14:35:30;32.70;58.60
37794;DHT22;23632;48.826;15.176;2022-08-24T14:40:54;31.70;60.20
37794;DHT22;23632;48.826;15.176;2022-08-24T14:47:36;30.70;61.20
37794;DHT22;23632;48.826;15.176;2022-08-24T14:52:52;29.90;62.10
37794;DHT22;23632;48.826;15.176;2022-08-24T14:55:42;29.60;62.40
37794;DHT22;23632;48.826;15.176;2022-08-24T14:58:31;29.40;63.00
37794;DHT22;23632;48.826;15.176;2022-08-24T15:07:24;29.40;65.40
37794;DHT22;23632;48.826;15.176;2022-08-24T15:09:54;30.20;66.70
37794;DHT22;23632;48.826;15.176;2022-08-24T15:12:41;31.00;65.90
37794;DHT22;23632;48.826;15.176;2022-08-24T15:15:34;31.90;64.70
37794;DHT22;23632;48.826;15.176;2022-08-24T15:24:50;33.80;60.90
37794;DHT22;23632;48.826;15.176;2022-08-24T15:27:42;34.00;61.10
37794;DHT22;23632;48.826;15.176;2022-08-24T15:30:29;34.20;60.70
37794;DHT22;23632;48.826;15.176;2022-08-24T15:33:11;34.60;62.10
37794;DHT22;23632;48.826;15.176;2022-08-24T15:36:02;35.10;60.20
37794;DHT22;23632;48.826;15.176;2022-08-24T15:38:39;35.60;58.90
37794;DHT22;23632;48.826;15.176;2022-08-24T15:44:15;36.60;56.30
37794;DHT22;23632;48.826;15.176;2022-08-24T15:46:58;37.10;56.70
37794;DHT22;23632;48.826;15.176;2022-08-24T15:49:34;37.40;54.60
37794;DHT22;23632;48.826;15.176;2022-08-24T15:55:28;37.80;55.40
37794;DHT22;23632;48.826;15.176;2022-08-24T15:58:25;37.70;53.20
37794;DHT22;23632;48.826;15.176;2022-08-24T16:14:27;37.50;51.50
37794;DHT22;23632;48.826;15.176;2022-08-24T16:16:57;37.30;50.30
37794;DHT22;23632;48.826;15.176;2022-08-24T16:19:31;36.80;49.20
37794;DHT22;23632;48.826;15.176;2022-08-24T16:22:03;36.40;50.30
37794;DHT22;23632;48.826;15.176;2022-08-24T16:24:38;36.20;51.10
37794;DHT22;23632;48.826;15.176;2022-08-24T16:27:15;36.00;51.20
37794;DHT22;23632;48.826;15.176;2022-08-24T16:29:48;35.80;51.70
37794;DHT22;23632;48.826;15.176;2022-08-24T16:32:28;35.80;51.70
37794;DHT22;23632;48.826;15.176;2022-08-24T16:35:19;35.70;51.60
37794;DHT22;23632;48.826;15.176;2022-08-24T16:37:48;35.70;51.60
37794;DHT22;23632;48.826;15.176;2022-08-24T16:40:16;35.70;51.60
37794;DHT22;23632;48.826;15.176;2022-08-24T16:42:43;35.70;51.60
37794;DHT22;23632;48.826;15.176;2022-08-24T16:45:14;35.70;51.70
37794;DHT22;23632;48.826;15.176;2022-08-24T16:47:44;35.70;51.50
37794;DHT22;23632;48.826;15.176;2022-08-24T16:50:18;35.60;51.50
37794;DHT22;23632;48.826;15.176;2022-08-24T16:52:46;35.40;51.20
37794;DHT22;23632;48.826;15.176;2022-08-24T16:55:14;35.10;51.10
37794;DHT22;23632;48.826;15.176;2022-08-24T16:57:41;34.60;50.70
37794;DHT22;23632;48.826;15.176;2022-08-24T17:00:15;34.10;52.10
37794;DHT22;23632;48.826;15.176;2022-08-24T17:02:45;33.60;52.30
37794;DHT22;23632;48.826;15.176;2022-08-24T17:05:15;33.10;53.60
37794;DHT22;23632;48.826;15.176;2022-08-24T17:07:44;32.60;53.90
37794;DHT22;23632;48.826;15.176;2022-08-24T17:10:13;32.10;54.30
37794;DHT22;23632;48.826;15.176;2022-08-24T17:12:42;31.70;55.30
37794;DHT22;23632;48.826;15.176;2022-08-24T17:15:12;31.20;55.80
37794;DHT22;23632;48.826;15.176;2022-08-24T17:17:52;30.80;56.70
37794;DHT22;23632;48.826;15.176;2022-08-24T17:20:21;30.40;57.50
37794;DHT22;23632;48.826;15.176;2022-08-24T17:22:48;30.10;58.00
37794;DHT22;23632;48.826;15.176;2022-08-24T17:25:15;29.70;58.40
37794;DHT22;23632;48.826;15.176;2022-08-24T17:27:43;29.40;58.80
37794;DHT22;23632;48.826;15.176;2022-08-24T17:30:11;29.00;59.40
37794;DHT22;23632;48.826;15.176;2022-08-24T17:32:42;28.70;60.00
37794;DHT22;23632;48.826;15.176;2022-08-24T17:35:10;28.40;60.30
37794;DHT22;23632;48.826;15.176;2022-08-24T17:37:37;28.00;61.20
37794;DHT22;23632;48.826;15.176;2022-08-24T17:40:07;27.70;61.00
37794;DHT22;23632;48.826;15.176;2022-08-24T17:42:38;27.40;61.70
37794;DHT22;23632;48.826;15.176;2022-08-24T17:45:17;27.20;62.20
37794;DHT22;23632;48.826;15.176;2022-08-24T17:47:45;26.80;62.40
37794;DHT22;23632;48.826;15.176;2022-08-24T17:50:14;26.50;63.00
37794;DHT22;23632;48.826;15.176;2022-08-24T17:52:42;26.20;63.50
37794;DHT22;23632;48.826;15.176;2022-08-24T17:55:11;25.90;63.80
37794;DHT22;23632;48.826;15.176;2022-08-24T17:57:40;25.70;64.20
37794;DHT22;23632;48.826;15.176;2022-08-24T18:00:14;25.40;64.30
37794;DHT22;23632;48.826;15.176;2022-08-24T18:02:42;25.20;64.70
37794;DHT22;23632;48.826;15.176;2022-08-24T18:05:10;24.90;65.20
37794;DHT22;23632;48.826;15.176;2022-08-24T18:07:47;24.80;65.70
37794;DHT22;23632;48.826;15.176;2022-08-24T18:10:23;24.50;66.40
37794;DHT22;23632;48.826;15.176;2022-08-24T18:13:00;24.40;66.90
37794;DHT22;23632;48.826;15.176;2022-08-24T18:15:32;24.10;66.70
37794;DHT22;23632;48.826;15.176;2022-08-24T18:18:05;24.00;66.60
37794;DHT22;23632;48.826;15.176;2022-08-24T18:20:37;23.80;66.50
37794;DHT22;23632;48.826;15.176;2022-08-24T18:23:05;23.70;67.20
37794;DHT22;23632;48.826;15.176;2022-08-24T18:25:43;23.60;67.50
37794;DHT22;23632;48.826;15.176;2022-08-24T18:28:14;23.40;67.90
37794;DHT22;23632;48.826;15.176;2022-08-24T18:30:43;23.30;68.00
37794;DHT22;23632;48.826;15.176;2022-08-24T18:33:11;23.10;68.00
37794;DHT22;23632;48.826;15.176;2022-08-24T18:35:38;23.10;68.30
37794;DHT22;23632;48.826;15.176;2022-08-24T18:38:06;23.00;68.60
37794;DHT22;23632;48.826;15.176;2022-08-24T18:40:33;23.00;69.00
37794;DHT22;23632;48.826;15.176;2022-08-24T18:43:02;22.90;70.10
37794;DHT22;23632;48.826;15.176;2022-08-24T18:45:31;22.90;69.60
37794;DHT22;23632;48.826;15.176;2022-08-24T18:47:59;22.90;69.80
37794;DHT22;23632;48.826;15.176;2022-08-24T18:50:27;22.90;69.80
37794;DHT22;23632;48.826;15.176;2022-08-24T18:52:56;22.80;69.70
37794;DHT22;23632;48.826;15.176;2022-08-24T18:55:25;22.90;70.20
37794;DHT22;23632;48.826;15.176;2022-08-24T18:57:53;22.90;70.10
37794;DHT22;23632;48.826;15.176;2022-08-24T19:00:20;22.90;69.90
37794;DHT22;23632;48.826;15.176;2022-08-24T19:02:48;22.90;69.90
37794;DHT22;23632;48.826;15.176;2022-08-24T19:05:19;22.90;70.00
37794;DHT22;23632;48.826;15.176;2022-08-24T19:07:50;22.90;70.20
37794;DHT22;23632;48.826;15.176;2022-08-24T19:10:23;22.90;70.10
37794;DHT22;23632;48.826;15.176;2022-08-24T19:12:55;22.90;70.10
37794;DHT22;23632;48.826;15.176;2022-08-24T19:15:25;22.90;70.10
37794;DHT22;23632;48.826;15.176;2022-08-24T19:18:07;22.90;70.10
37794;DHT22;23632;48.826;15.176;2022-08-24T19:20:42;23.00;70.30
37794;DHT22;23632;48.826;15.176;2022-08-24T19:23:26;23.00;71.40
37794;DHT22;23632;48.826;15.176;2022-08-24T19:25:55;23.00;70.60
37794;DHT22;23632;48.826;15.176;2022-08-24T19:28:24;23.00;70.30
37794;DHT22;23632;48.826;15.176;2022-08-24T19:30:54;23.10;70.50
37794;DHT22;23632;48.826;15.176;2022-08-24T19:33:25;23.10;70.70
37794;DHT22;23632;48.826;15.176;2022-08-24T19:35:54;23.10;70.80
37794;DHT22;23632;48.826;15.176;2022-08-24T19:38:21;23.10;70.60
37794;DHT22;23632;48.826;15.176;2022-08-24T19:40:53;23.10;70.70